Time;durP1;ratioP1;P1;durP2;ratioP2;P2;SDS_P1;SDS_P2;PMS_P1;PMS_P2;Temp;Humidity;BMP_temperature;BMP_pressure;BME280_temperature;BME280_humidity;BME280_pressure;Samples;Min_cycle;Max_cycle;Signal;HPM_P1;HPM_P2
2021/11/13 00:00:36;;;;;;;6.05;4.70;;;3.00;99.90;;;;;;4378359;32;20066;-74
2021/11/13 00:03:02;;;;;;;6.57;4.87;;;3.00;99.90;;;;;;4378878;32;20107;-75
2021/11/13 00:05:28;;;;;;;6.95;4.85;;;2.90;99.90;;;;;;4353938;32;20146;-74
2021/11/13 00:07:54;;;;;;;7.12;4.22;;;2.90;99.90;;;;;;4353892;32;20082;-74
2021/11/13 00:10:26;;;;;;;6.75;4.60;;;2.90;99.90;;;;;;4366034;32;20082;-75
2021/11/13 00:12:54;;;;;;;5.70;4.60;;;2.90;99.90;;;;;;4367200;32;20081;-74
2021/11/13 00:15:22;;;;;;;7.37;4.47;;;2.90;99.90;;;;;;4378299;32;20093;-75
2021/11/13 00:17:49;;;;;;;4.93;3.85;;;2.80;99.90;;;;;;4366221;32;20165;-74
2021/11/13 00:20:16;;;;;;;6.32;4.65;;;2.90;99.90;;;;;;4365681;32;20053;-75
2021/11/13 00:22:42;;;;;;;5.60;4.35;;;2.80;99.90;;;;;;4353427;32;20082;-74
2021/11/13 00:25:08;;;;;;;6.10;4.50;;;2.70;99.90;;;;;;4353471;32;20082;-74
2021/11/13 00:27:35;;;;;;;6.18;4.18;;;2.70;99.90;;;;;;4353104;32;20144;-75
2021/11/13 00:30:03;;;;;;;5.25;3.90;;;2.60;99.90;;;;;;4391818;32;20105;-74
2021/11/13 00:32:29;;;;;;;6.53;4.70;;;2.60;99.90;;;;;;4391982;32;20081;-74
2021/11/13 00:34:55;;;;;;;6.30;4.47;;;2.60;99.90;;;;;;4365931;32;20150;-75
2021/11/13 00:37:21;;;;;;;5.45;4.20;;;2.60;99.90;;;;;;4340836;32;20085;-75
2021/11/13 00:39:48;;;;;;;6.62;4.22;;;2.60;99.90;;;;;;4341228;32;20188;-74
2021/11/13 00:42:14;;;;;;;7.32;4.00;;;2.70;99.90;;;;;;4365518;32;20476;-74
2021/11/13 00:44:41;;;;;;;6.22;4.45;;;2.60;99.90;;;;;;4365984;32;20089;-75
2021/11/13 00:47:07;;;;;;;6.18;4.30;;;2.70;99.90;;;;;;4353154;32;20074;-74
2021/11/13 00:49:33;;;;;;;5.18;3.95;;;2.70;99.90;;;;;;4352752;32;20069;-74
2021/11/13 00:51:59;;;;;;;5.57;4.12;;;2.70;99.90;;;;;;4352744;32;20475;-74
2021/11/13 00:54:25;;;;;;;6.15;4.28;;;2.70;99.90;;;;;;4341009;32;20082;-75
2021/11/13 00:56:52;;;;;;;6.35;4.50;;;2.70;99.90;;;;;;4365707;32;20074;-75
2021/11/13 00:59:18;;;;;;;6.10;4.25;;;2.70;99.90;;;;;;4370499;32;20096;-75
2021/11/13 01:01:44;;;;;;;5.87;4.43;;;2.80;99.90;;;;;;4347147;32;20508;-76
2021/11/13 01:04:10;;;;;;;6.30;4.30;;;2.90;99.90;;;;;;4366056;32;20169;-75
2021/11/13 01:06:37;;;;;;;5.47;4.00;;;2.90;99.90;;;;;;4365344;32;20150;-75
2021/11/13 01:09:03;;;;;;;5.68;4.25;;;3.00;99.90;;;;;;4365469;32;20075;-74
2021/11/13 01:11:30;;;;;;;6.37;4.35;;;3.10;99.90;;;;;;4353160;32;20166;-75
2021/11/13 01:13:57;;;;;;;5.75;3.97;;;3.10;99.90;;;;;;4377833;32;20177;-74
2021/11/13 01:16:24;;;;;;;5.22;3.60;;;3.20;99.90;;;;;;4365465;32;20495;-75
2021/11/13 01:18:50;;;;;;;5.47;3.80;;;3.30;99.90;;;;;;4365783;32;20081;-74
2021/11/13 01:21:16;;;;;;;5.32;3.92;;;3.30;99.90;;;;;;4377312;32;20070;-75
2021/11/13 01:23:43;;;;;;;5.53;3.97;;;3.30;99.90;;;;;;4352992;32;20107;-75
2021/11/13 01:26:09;;;;;;;4.85;3.50;;;3.20;99.90;;;;;;4352650;32;20104;-74
2021/11/13 01:28:36;;;;;;;5.00;3.70;;;3.20;99.90;;;;;;4377668;32;20074;-74
2021/11/13 01:31:02;;;;;;;5.78;3.72;;;3.10;99.90;;;;;;4365245;32;20145;-74
2021/11/13 01:33:28;;;;;;;4.93;3.50;;;3.10;99.90;;;;;;4340653;32;20540;-74
2021/11/13 01:35:55;;;;;;;4.37;3.05;;;3.10;99.90;;;;;;4364764;32;20101;-75
2021/11/13 01:38:21;;;;;;;4.30;2.92;;;3.20;99.90;;;;;;4391013;32;20516;-75
2021/11/13 01:40:47;;;;;;;3.80;2.85;;;3.20;99.90;;;;;;4352422;32;20070;-74
2021/11/13 01:43:13;;;;;;;3.17;2.70;;;3.20;99.90;;;;;;4352975;32;20073;-74
2021/11/13 01:45:39;;;;;;;3.47;2.85;;;3.20;99.90;;;;;;4365365;32;20081;-75
2021/11/13 01:48:06;;;;;;;2.90;2.40;;;3.30;99.90;;;;;;4353009;32;20161;-75
2021/11/13 01:50:42;;;;;;;2.87;2.10;;;3.20;99.90;;;;;;4365185;32;20074;-75
2021/11/13 01:53:09;;;;;;;3.35;2.30;;;3.20;99.90;;;;;;4366542;32;20104;-73
2021/11/13 01:55:36;;;;;;;3.35;2.55;;;3.20;99.90;;;;;;4340663;32;20073;-74
2021/11/13 01:58:04;;;;;;;3.42;2.70;;;3.10;99.90;;;;;;4365154;32;20077;-75
2021/11/13 02:00:44;;;;;;;3.05;2.40;;;3.10;99.90;;;;;;4354120;32;20077;-74
2021/11/13 02:03:11;;;;;;;3.40;2.50;;;3.00;99.90;;;;;;4379866;32;20487;-74
2021/11/13 02:05:38;;;;;;;3.17;2.60;;;2.90;99.90;;;;;;4393834;32;20089;-74
2021/11/13 02:08:05;;;;;;;4.72;3.20;;;2.80;99.90;;;;;;4380714;32;20064;-74
2021/11/13 02:10:31;;;;;;;4.03;3.00;;;2.70;99.90;;;;;;4368074;32;20085;-75
2021/11/13 02:12:57;;;;;;;4.50;3.22;;;2.60;99.90;;;;;;4367688;32;20081;-74
2021/11/13 02:15:24;;;;;;;5.45;3.00;;;2.50;99.90;;;;;;4379856;32;20596;-74
2021/11/13 02:17:50;;;;;;;3.65;2.75;;;2.40;99.90;;;;;;4355176;32;20086;-73
2021/11/13 02:20:27;;;;;;;3.53;2.62;;;2.40;99.90;;;;;;4367575;32;20078;-74
2021/11/13 02:22:54;;;;;;;3.67;2.60;;;2.30;99.90;;;;;;4379867;32;20081;-75
2021/11/13 02:25:24;;;;;;;3.30;2.40;;;2.20;99.90;;;;;;4355518;32;20516;-74
2021/11/13 02:27:50;;;;;;;3.05;2.30;;;2.10;99.90;;;;;;4355747;32;20069;-75
2021/11/13 02:30:16;;;;;;;3.55;2.58;;;2.10;99.90;;;;;;4368061;32;20085;-75
2021/11/13 02:32:43;;;;;;;3.17;2.33;;;2.00;99.90;;;;;;4367103;32;20174;-76
2021/11/13 02:35:12;;;;;;;2.80;2.10;;;2.00;99.90;;;;;;4355467;32;20499;-74
2021/11/13 02:37:39;;;;;;;2.78;2.25;;;2.00;99.90;;;;;;4355568;32;20077;-74
2021/11/13 02:40:06;;;;;;;3.10;2.20;;;2.00;99.90;;;;;;4367737;32;20077;-74
2021/11/13 02:42:34;;;;;;;2.42;1.98;;;2.00;99.90;;;;;;4355199;32;20098;-74
2021/11/13 02:45:01;;;;;;;2.72;2.40;;;2.00;99.90;;;;;;4355055;32;20077;-74
2021/11/13 02:47:27;;;;;;;2.53;1.90;;;1.90;99.90;;;;;;4354726;32;20085;-74
2021/11/13 02:49:54;;;;;;;2.20;1.80;;;2.00;99.90;;;;;;4367157;32;20074;-73
2021/11/13 02:52:20;;;;;;;3.05;1.80;;;1.90;99.90;;;;;;4379318;32;20074;-74
2021/11/13 02:54:48;;;;;;;2.55;1.67;;;1.90;99.90;;;;;;4355118;32;20089;-74
2021/11/13 02:57:15;;;;;;;1.80;1.60;;;1.90;99.90;;;;;;4366812;32;20077;-74
2021/11/13 02:59:49;;;;;;;1.70;1.60;;;1.90;99.90;;;;;;4367040;32;20065;-74
2021/11/13 03:02:16;;;;;;;2.35;1.90;;;1.90;99.90;;;;;;4393670;32;20108;-74
2021/11/13 03:04:42;;;;;;;2.30;1.83;;;1.90;99.90;;;;;;4354603;32;20140;-74
2021/11/13 03:07:09;;;;;;;1.83;1.52;;;1.90;99.90;;;;;;4367255;32;20168;-74
2021/11/13 03:09:36;;;;;;;1.62;1.50;;;1.80;99.90;;;;;;4354852;32;20076;-73
2021/11/13 03:12:03;;;;;;;1.62;1.52;;;1.80;99.90;;;;;;4366289;32;20463;-74
2021/11/13 03:14:29;;;;;;;1.92;1.70;;;1.80;99.90;;;;;;4366931;32;20089;-74
2021/11/13 03:17:03;;;;;;;1.98;1.73;;;1.80;99.90;;;;;;4379335;32;20081;-74
2021/11/13 03:19:29;;;;;;;2.30;1.75;;;1.80;99.90;;;;;;4354662;32;20084;-74
2021/11/13 03:21:55;;;;;;;1.98;1.70;;;1.80;99.90;;;;;;4392982;32;20153;-74
2021/11/13 03:24:22;;;;;;;1.62;1.40;;;1.80;99.90;;;;;;4367037;32;20090;-74
2021/11/13 03:26:48;;;;;;;1.65;1.50;;;1.80;99.90;;;;;;4354217;32;20165;-74
2021/11/13 03:29:24;;;;;;;2.75;2.12;;;1.80;99.90;;;;;;4354241;32;20093;-74
2021/11/13 03:31:51;;;;;;;1.80;1.60;;;1.70;99.90;;;;;;4368151;32;20086;-74
2021/11/13 03:34:17;;;;;;;2.97;1.98;;;1.70;99.90;;;;;;4379099;32;20089;-74
2021/11/13 03:36:43;;;;;;;3.17;2.20;;;1.70;99.90;;;;;;4366335;32;20066;-74
2021/11/13 03:39:09;;;;;;;2.17;1.98;;;1.70;99.90;;;;;;4351249;32;20078;-74
2021/11/13 03:41:36;;;;;;;1.65;1.55;;;1.70;99.90;;;;;;4376626;32;20078;-73
2021/11/13 03:44:02;;;;;;;2.40;1.92;;;1.70;99.90;;;;;;4364046;32;20096;-74
2021/11/13 03:46:28;;;;;;;3.15;2.00;;;1.70;99.90;;;;;;4352144;32;20500;-74
2021/11/13 03:48:54;;;;;;;2.30;2.05;;;1.80;99.90;;;;;;4364242;32;20090;-74
2021/11/13 03:51:21;;;;;;;2.80;2.20;;;1.80;99.90;;;;;;4376172;32;20066;-74
2021/11/13 03:53:48;;;;;;;2.97;2.25;;;1.80;99.90;;;;;;4351521;32;20227;-74
2021/11/13 03:56:15;;;;;;;3.35;2.33;;;1.80;99.90;;;;;;4363917;32;20110;-74
2021/11/13 03:58:42;;;;;;;3.22;2.60;;;1.80;99.90;;;;;;4364142;32;20134;-74
2021/11/13 04:01:08;;;;;;;3.25;2.53;;;1.90;99.90;;;;;;4351386;32;20081;-73
2021/11/13 04:03:34;;;;;;;3.28;2.60;;;1.80;99.90;;;;;;4351471;32;20074;-74
2021/11/13 04:06:00;;;;;;;2.90;2.28;;;1.90;99.90;;;;;;4376558;32;20071;-74
2021/11/13 04:08:26;;;;;;;3.72;3.00;;;1.90;99.90;;;;;;4351154;32;20158;-74
2021/11/13 04:10:53;;;;;;;4.28;2.97;;;1.90;99.90;;;;;;4376078;32;20157;-73
2021/11/13 04:13:19;;;;;;;3.12;2.28;;;1.90;99.90;;;;;;4376338;32;20161;-74
2021/11/13 04:15:45;;;;;;;5.60;3.70;;;1.80;99.90;;;;;;4363827;32;20093;-74
2021/11/13 04:18:11;;;;;;;7.05;4.32;;;1.90;99.90;;;;;;4363402;32;20090;-74
2021/11/13 04:20:37;;;;;;;7.62;4.90;;;1.90;99.90;;;;;;4375894;32;20088;-75
2021/11/13 04:23:04;;;;;;;7.78;5.15;;;1.80;99.90;;;;;;4375242;32;20069;-74
2021/11/13 04:25:30;;;;;;;7.97;4.90;;;1.80;99.90;;;;;;4363690;32;20082;-75
2021/11/13 04:27:56;;;;;;;6.68;4.72;;;1.80;99.90;;;;;;4364184;32;20081;-74
2021/11/13 04:30:22;;;;;;;5.03;3.67;;;1.80;99.90;;;;;;4376042;32;20085;-74
2021/11/13 04:32:50;;;;;;;6.22;4.22;;;1.80;99.90;;;;;;4375671;32;20080;-75
2021/11/13 04:38:10;;;;;;;4.95;3.62;;;1.80;99.90;;;;;;4364209;32;20073;-75
2021/11/13 04:40:36;;;;;;;6.43;4.72;;;1.80;99.90;;;;;;4376251;32;20080;-76
2021/11/13 04:43:03;;;;;;;7.55;4.60;;;1.70;99.90;;;;;;4377735;32;20074;-75
2021/11/13 04:45:30;;;;;;;6.85;4.93;;;1.70;99.90;;;;;;4379508;32;20075;-76
2021/11/13 04:47:57;;;;;;;6.00;4.60;;;1.60;99.90;;;;;;4365704;32;20129;-74
2021/11/13 04:50:26;;;;;;;6.70;4.80;;;1.50;99.90;;;;;;4375577;32;20440;-74
2021/11/13 04:52:52;;;;;;;6.62;4.93;;;1.50;99.90;;;;;;4363476;32;20074;-73
2021/11/13 04:55:19;;;;;;;5.93;4.20;;;1.50;99.90;;;;;;4363228;32;20162;-74
2021/11/13 04:57:46;;;;;;;5.93;4.80;;;1.40;99.90;;;;;;4350656;32;20096;-73
2021/11/13 05:00:14;;;;;;;4.70;3.55;;;1.40;99.90;;;;;;4377245;32;20112;-74
2021/11/13 05:02:40;;;;;;;6.30;4.70;;;1.40;99.90;;;;;;4363512;32;20109;-74
2021/11/13 05:05:07;;;;;;;6.65;5.43;;;1.40;99.90;;;;;;4376810;32;20085;-74
2021/11/13 05:07:34;;;;;;;6.53;4.82;;;1.40;99.90;;;;;;4375267;32;20206;-74
2021/11/13 05:10:00;;;;;;;6.80;5.12;;;1.50;99.90;;;;;;4350697;32;20065;-75
2021/11/13 05:12:27;;;;;;;6.62;5.10;;;1.40;99.90;;;;;;4363263;32;20081;-74
2021/11/13 05:14:53;;;;;;;6.70;5.53;;;1.40;99.90;;;;;;4375193;32;20444;-74
2021/11/13 05:17:19;;;;;;;5.65;4.68;;;1.40;99.90;;;;;;4362842;32;20193;-74
2021/11/13 05:19:45;;;;;;;7.82;5.12;;;1.40;99.90;;;;;;4362931;32;20088;-74
2021/11/13 05:22:11;;;;;;;7.05;5.12;;;1.30;99.90;;;;;;4376676;32;20086;-74
2021/11/13 05:24:37;;;;;;;7.05;5.30;;;1.30;99.90;;;;;;4375357;32;20066;-74
2021/11/13 05:27:04;;;;;;;6.97;5.53;;;1.30;99.90;;;;;;4375182;32;20089;-74
2021/11/13 05:29:30;;;;;;;6.80;5.22;;;1.30;99.90;;;;;;4362593;32;20066;-74
2021/11/13 05:31:57;;;;;;;7.95;5.25;;;1.30;99.90;;;;;;4362639;32;20519;-74
2021/11/13 05:34:23;;;;;;;8.98;5.80;;;1.20;99.90;;;;;;4350437;32;20067;-74
2021/11/13 05:36:49;;;;;;;8.02;5.60;;;1.20;99.90;;;;;;4374784;32;20074;-74
2021/11/13 05:39:15;;;;;;;8.27;5.90;;;1.20;99.90;;;;;;4347329;32;20488;-74
2021/11/13 05:41:42;;;;;;;5.82;4.37;;;1.20;99.90;;;;;;4360167;32;20163;-74
2021/11/13 05:44:08;;;;;;;8.70;5.85;;;1.10;99.90;;;;;;4360009;32;20097;-73
2021/11/13 05:46:34;;;;;;;8.60;5.05;;;1.10;99.90;;;;;;4347465;32;20066;-74
2021/11/13 05:49:00;;;;;;;8.00;6.15;;;1.10;99.90;;;;;;4347282;32;20481;-74
2021/11/13 05:51:27;;;;;;;7.45;5.65;;;1.10;99.90;;;;;;4359793;32;20155;-74
2021/11/13 05:53:53;;;;;;;9.00;7.18;;;1.10;99.90;;;;;;4348130;32;20078;-73
2021/11/13 05:56:19;;;;;;;7.00;5.18;;;1.10;99.90;;;;;;4347670;32;20067;-74
2021/11/13 05:58:45;;;;;;;8.50;5.28;;;1.10;99.90;;;;;;4347494;32;20149;-73
2021/11/13 06:01:11;;;;;;;6.65;4.65;;;1.10;99.90;;;;;;4347535;32;20102;-74
2021/11/13 06:03:37;;;;;;;8.43;5.70;;;1.10;99.90;;;;;;4347363;32;20071;-73
2021/11/13 06:06:03;;;;;;;7.75;5.35;;;1.00;99.90;;;;;;4359885;32;20074;-74
2021/11/13 06:08:30;;;;;;;5.78;3.62;;;1.00;99.90;;;;;;4347614;32;20076;-73
2021/11/13 06:10:56;;;;;;;8.70;6.03;;;1.00;99.90;;;;;;4347339;32;20078;-74
2021/11/13 06:13:22;;;;;;;8.75;6.75;;;1.00;99.90;;;;;;4347402;32;20070;-74
2021/11/13 06:15:48;;;;;;;8.27;7.32;;;1.00;99.90;;;;;;4347202;32;20153;-74
2021/11/13 06:18:14;;;;;;;9.73;6.60;;;1.00;99.90;;;;;;4347767;32;20483;-75
2021/11/13 06:20:40;;;;;;;10.05;7.00;;;1.00;99.90;;;;;;4348259;32;20079;-75
2021/11/13 06:23:07;;;;;;;10.82;7.32;;;0.90;99.90;;;;;;4347374;32;20134;-74
2021/11/13 06:25:33;;;;;;;7.55;5.93;;;1.00;99.90;;;;;;4361350;32;20493;-73
2021/11/13 06:27:59;;;;;;;9.13;7.15;;;0.90;99.90;;;;;;4347756;32;20163;-74
2021/11/13 06:30:28;;;;;;;7.15;5.32;;;1.00;99.90;;;;;;4347233;32;20087;-72
2021/11/13 06:32:55;;;;;;;8.20;5.43;;;0.90;99.90;;;;;;4361249;32;20157;-72
2021/11/13 06:35:21;;;;;;;5.47;4.32;;;0.90;99.90;;;;;;4347551;32;20078;-74
2021/11/13 06:37:47;;;;;;;8.65;6.10;;;0.90;99.90;;;;;;4347562;32;20513;-74
2021/11/13 06:40:15;;;;;;;7.82;4.95;;;0.90;99.90;;;;;;4335113;32;20074;-73
2021/11/13 06:42:41;;;;;;;7.80;5.15;;;0.90;99.90;;;;;;4347273;32;20590;-72
2021/11/13 06:45:10;;;;;;;6.50;5.05;;;0.90;99.90;;;;;;4347281;32;20071;-71
2021/11/13 06:47:37;;;;;;;7.35;5.07;;;1.00;99.90;;;;;;4350143;32;20100;-74
2021/11/13 06:50:04;;;;;;;8.38;5.90;;;0.90;99.90;;;;;;4337655;32;20156;-72
2021/11/13 06:52:31;;;;;;;6.75;4.40;;;0.90;99.90;;;;;;4350161;32;20096;-73
2021/11/13 06:54:57;;;;;;;8.48;6.15;;;0.90;99.90;;;;;;4337921;32;20440;-72
2021/11/13 06:57:24;;;;;;;7.12;5.65;;;1.00;99.90;;;;;;4338269;32;20082;-72
2021/11/13 06:59:50;;;;;;;8.10;4.62;;;1.00;99.90;;;;;;4362927;32;20151;-72
2021/11/13 07:02:16;;;;;;;9.48;6.22;;;1.10;99.90;;;;;;4362671;32;20088;-73
2021/11/13 07:04:43;;;;;;;9.90;5.95;;;1.10;99.90;;;;;;4357107;32;20585;-68
2021/11/13 07:07:14;;;;;;;8.65;7.10;;;1.10;99.90;;;;;;4333735;32;20137;-72
2021/11/13 07:09:41;;;;;;;8.18;5.85;;;1.00;99.90;;;;;;4359382;32;20572;-66
2021/11/13 07:12:08;;;;;;;7.72;5.80;;;1.10;99.90;;;;;;4343426;32;20195;-71
2021/11/13 07:14:34;;;;;;;9.05;6.35;;;1.10;99.90;;;;;;4333101;32;20078;-70
2021/11/13 07:17:00;;;;;;;9.30;7.60;;;1.00;99.90;;;;;;4335483;32;20066;-71
2021/11/13 07:19:26;;;;;;;10.15;7.78;;;0.90;99.90;;;;;;4346140;32;20109;-73
2021/11/13 07:21:54;;;;;;;9.25;7.30;;;1.10;99.90;;;;;;4346350;32;20089;-71
2021/11/13 07:24:20;;;;;;;8.98;7.03;;;1.00;99.90;;;;;;4344954;32;20194;-73
2021/11/13 07:26:52;;;;;;;9.45;7.37;;;1.00;99.90;;;;;;4352996;32;20106;-72
2021/11/13 07:29:26;;;;;;;10.73;7.25;;;1.00;99.90;;;;;;4359808;32;20118;-70
2021/11/13 07:31:53;;;;;;;11.12;8.23;;;1.00;99.90;;;;;;4359316;32;20071;-70
2021/11/13 07:34:19;;;;;;;10.07;7.80;;;1.00;99.90;;;;;;4322719;32;20066;-69
2021/11/13 07:36:46;;;;;;;10.45;8.48;;;0.90;99.90;;;;;;4332905;32;20158;-72
2021/11/13 07:39:12;;;;;;;10.25;8.65;;;0.90;99.90;;;;;;4373870;32;20093;-71
2021/11/13 07:41:39;;;;;;;10.95;7.40;;;0.90;99.90;;;;;;4355790;32;20097;-71
2021/11/13 07:44:05;;;;;;;10.57;8.93;;;0.80;99.90;;;;;;4336699;32;20149;-71
2021/11/13 07:46:31;;;;;;;10.50;7.93;;;0.90;99.90;;;;;;4373495;32;20152;-71
2021/11/13 07:48:57;;;;;;;10.32;7.05;;;0.90;99.90;;;;;;4352467;32;20070;-71
2021/11/13 07:51:24;;;;;;;9.45;7.18;;;0.90;99.90;;;;;;4355530;32;20081;-68
2021/11/13 07:53:50;;;;;;;11.15;9.27;;;0.80;99.90;;;;;;4369686;32;20109;-71
2021/11/13 07:56:17;;;;;;;9.02;4.97;;;0.80;99.90;;;;;;4351116;32;20092;-71
2021/11/13 07:58:43;;;;;;;7.50;4.90;;;0.90;99.90;;;;;;4343507;32;20087;-71
2021/11/13 08:01:09;;;;;;;7.65;4.95;;;0.90;99.90;;;;;;4370293;32;20096;-74
2021/11/13 08:03:35;;;;;;;11.77;9.00;;;0.90;99.90;;;;;;4360263;32;20082;-69
2021/11/13 08:06:01;;;;;;;12.27;9.55;;;0.80;99.90;;;;;;4363712;32;20081;-74
2021/11/13 08:08:27;;;;;;;12.02;8.45;;;0.80;99.90;;;;;;4363485;32;20074;-71
2021/11/13 08:10:54;;;;;;;11.15;7.68;;;0.80;99.90;;;;;;4362509;32;20469;-70
2021/11/13 08:13:20;;;;;;;12.05;9.25;;;0.80;99.90;;;;;;4371796;32;20075;-71
2021/11/13 08:15:48;;;;;;;13.68;10.15;;;0.70;99.90;;;;;;4347174;32;20093;-72
2021/11/13 08:18:14;;;;;;;12.02;9.85;;;0.80;99.90;;;;;;4347768;32;20159;-70
2021/11/13 08:20:40;;;;;;;12.15;8.43;;;0.70;99.90;;;;;;4361005;32;20097;-70
2021/11/13 08:23:09;;;;;;;11.98;9.43;;;0.80;99.90;;;;;;4336350;32;20080;-69
2021/11/13 08:25:39;;;;;;;12.95;9.30;;;0.80;99.90;;;;;;4360517;32;20138;-70
2021/11/13 08:28:06;;;;;;;6.72;3.28;;;0.70;99.90;;;;;;4348709;32;20062;-69
2021/11/13 08:30:33;;;;;;;13.55;9.35;;;0.80;99.90;;;;;;4348895;32;20091;-70
2021/11/13 08:33:00;;;;;;;11.20;8.73;;;0.80;99.90;;;;;;4348682;32;20082;-70
2021/11/13 08:35:26;;;;;;;10.82;7.70;;;0.70;99.90;;;;;;4361158;32;20453;-70
2021/11/13 08:37:52;;;;;;;15.45;9.27;;;0.70;99.90;;;;;;4360849;32;20078;-72
2021/11/13 08:40:18;;;;;;;13.50;9.20;;;0.70;99.90;;;;;;4348397;32;20508;-70
2021/11/13 08:42:45;;;;;;;13.55;8.88;;;0.80;99.90;;;;;;4360971;32;20078;-69
2021/11/13 08:45:12;;;;;;;13.10;9.07;;;0.80;99.90;;;;;;4348541;32;20100;-69
2021/11/13 08:47:40;;;;;;;13.00;9.70;;;0.80;99.90;;;;;;4361366;32;20594;-69
2021/11/13 08:50:09;;;;;;;13.60;8.70;;;0.70;99.90;;;;;;4348890;32;20515;-69
2021/11/13 08:52:35;;;;;;;7.35;6.50;;;0.70;99.90;;;;;;4349279;32;20077;-69
2021/11/13 08:55:01;;;;;;;14.60;11.90;;;0.70;99.90;;;;;;4349247;32;20098;-70
2021/11/13 08:57:27;;;;;;;8.13;5.15;;;0.70;99.90;;;;;;4349510;32;20111;-68
2021/11/13 08:59:54;;;;;;;13.10;8.38;;;0.70;99.90;;;;;;4364237;32;20154;-69
2021/11/13 09:02:24;;;;;;;3.37;2.17;;;0.70;99.90;;;;;;4352057;32;20081;-70
2021/11/13 09:04:50;;;;;;;13.32;10.00;;;0.80;99.90;;;;;;4364428;32;20097;-69
2021/11/13 09:07:16;;;;;;;13.07;9.77;;;0.70;99.90;;;;;;4323961;32;20087;-70
2021/11/13 09:09:43;;;;;;;13.62;11.07;;;0.70;99.90;;;;;;4360427;32;20078;-69
2021/11/13 09:12:13;;;;;;;13.02;9.75;;;0.70;99.90;;;;;;4360325;32;20081;-70
2021/11/13 09:14:40;;;;;;;11.77;6.55;;;0.70;99.90;;;;;;4360347;32;20105;-70
2021/11/13 09:17:06;;;;;;;9.00;5.93;;;0.80;99.90;;;;;;4360419;32;20171;-70
2021/11/13 09:19:33;;;;;;;10.95;7.28;;;0.80;99.90;;;;;;4360388;32;20155;-69
2021/11/13 09:21:59;;;;;;;16.30;9.80;;;0.80;99.90;;;;;;4335699;32;20065;-70
2021/11/13 09:24:25;;;;;;;13.98;9.82;;;0.80;99.90;;;;;;4360369;32;20081;-71
2021/11/13 09:26:51;;;;;;;11.07;6.68;;;0.80;99.90;;;;;;4360548;32;20078;-71
2021/11/13 09:29:17;;;;;;;15.85;11.43;;;0.80;99.90;;;;;;4361073;32;20074;-70
2021/11/13 09:31:44;;;;;;;14.45;9.23;;;0.80;99.90;;;;;;4360787;32;20098;-70
2021/11/13 09:34:12;;;;;;;14.15;10.60;;;0.80;99.90;;;;;;4360530;32;20089;-70
2021/11/13 09:36:39;;;;;;;15.48;11.05;;;0.80;99.90;;;;;;4335701;32;20590;-70
2021/11/13 09:39:05;;;;;;;14.05;7.70;;;0.80;99.90;;;;;;4335460;32;20182;-70
2021/11/13 09:41:32;;;;;;;15.38;9.55;;;0.80;99.90;;;;;;4359923;32;20074;-70
2021/11/13 09:43:58;;;;;;;15.52;10.90;;;0.80;99.90;;;;;;4360244;32;20058;-69
2021/11/13 09:46:24;;;;;;;17.95;12.05;;;0.80;99.90;;;;;;4335713;32;20074;-72
2021/11/13 09:48:52;;;;;;;9.00;6.78;;;0.80;99.90;;;;;;4348130;32;20082;-69
2021/11/13 09:51:19;;;;;;;13.07;10.05;;;0.80;99.90;;;;;;4336249;32;20074;-71
2021/11/13 09:53:47;;;;;;;16.87;11.75;;;0.80;99.90;;;;;;4336604;32;20078;-70
2021/11/13 09:56:13;;;;;;;16.95;10.77;;;0.80;99.90;;;;;;4337219;32;20590;-69
2021/11/13 09:58:39;;;;;;;15.85;9.68;;;0.90;99.90;;;;;;4350354;32;20141;-69
2021/11/13 10:01:05;;;;;;;17.85;12.35;;;0.90;99.90;;;;;;4354939;32;20078;-70
2021/11/13 10:03:32;;;;;;;11.55;8.40;;;0.90;99.90;;;;;;4357191;32;20516;-69
2021/11/13 10:06:01;;;;;;;16.67;10.63;;;0.90;99.90;;;;;;4367809;32;20082;-71
2021/11/13 10:08:27;;;;;;;15.23;11.55;;;0.90;99.90;;;;;;4366746;32;20073;-70
2021/11/13 10:11:08;;;;;;;15.30;9.38;;;0.90;99.90;;;;;;4364344;32;20076;-69
2021/11/13 10:13:37;;;;;;;11.75;8.45;;;0.90;99.90;;;;;;4362754;32;20059;-70
2021/11/13 10:16:14;;;;;;;15.57;11.48;;;1.00;99.90;;;;;;4349820;32;20082;-70
2021/11/13 10:18:52;;;;;;;15.32;10.15;;;1.00;99.90;;;;;;4339347;32;20063;-70
2021/11/13 10:21:24;;;;;;;15.88;12.37;;;1.00;99.90;;;;;;4340129;32;20058;-70
2021/11/13 10:23:51;;;;;;;17.37;11.73;;;1.00;99.90;;;;;;4353150;32;20167;-70
2021/11/13 10:26:30;;;;;;;16.67;10.75;;;1.00;99.90;;;;;;4351544;32;20086;-70
2021/11/13 10:29:04;;;;;;;16.42;10.30;;;1.00;99.90;;;;;;4339184;32;20086;-71
2021/11/13 10:31:35;;;;;;;15.18;10.90;;;1.00;99.90;;;;;;4338659;32;20171;-70
2021/11/13 10:34:08;;;;;;;14.48;9.68;;;0.90;99.90;;;;;;4362798;32;20157;-71
2021/11/13 10:36:43;;;;;;;13.32;9.13;;;0.90;99.90;;;;;;4363041;32;20170;-70
2021/11/13 10:39:11;;;;;;;18.60;11.93;;;0.90;99.90;;;;;;4362622;32;20093;-70
2021/11/13 10:41:52;;;;;;;6.65;5.47;;;0.90;99.90;;;;;;4362464;32;20269;-70
2021/11/13 10:44:33;;;;;;;15.02;10.88;;;0.90;99.90;;;;;;4362614;32;20156;-72
2021/11/13 10:47:09;;;;;;;14.70;9.90;;;1.00;99.90;;;;;;4351739;32;20526;-69
2021/11/13 10:49:35;;;;;;;;;;;1.00;99.90;;;;;;4362995;32;20087;-70
2021/11/13 10:52:04;;;;;;;17.23;10.98;;;1.00;99.90;;;;;;4364378;32;20074;-70
2021/11/13 10:54:30;;;;;;;9.98;6.85;;;1.00;99.90;;;;;;4337875;32;20159;-70
2021/11/13 10:57:00;;;;;;;16.80;11.65;;;0.90;99.90;;;;;;4361748;32;20530;-70
2021/11/13 10:59:27;;;;;;;17.27;11.07;;;0.90;99.90;;;;;;4362368;32;20682;-71
2021/11/13 11:01:58;;;;;;;15.23;10.20;;;1.00;99.90;;;;;;4350100;32;20078;-70
2021/11/13 11:04:27;;;;;;;12.32;8.98;;;0.90;99.90;;;;;;4362591;32;20097;-71
2021/11/13 11:07:12;;;;;;;15.10;10.65;;;0.90;99.90;;;;;;4349788;32;20174;-70
2021/11/13 11:09:59;;;;;;;14.20;9.23;;;1.00;99.90;;;;;;4362248;32;20168;-69
2021/11/13 11:12:29;;;;;;;14.15;9.30;;;0.90;99.90;;;;;;4362204;32;20523;-71
2021/11/13 11:14:55;;;;;;;13.80;9.00;;;0.90;99.90;;;;;;4337586;32;20086;-70
2021/11/13 11:17:27;;;;;;;14.65;10.10;;;1.00;99.90;;;;;;4362054;32;20070;-71
2021/11/13 11:20:01;;;;;;;15.15;9.90;;;1.00;99.90;;;;;;4350064;32;20154;-71
2021/11/13 11:22:28;;;;;;;15.10;9.55;;;0.90;99.90;;;;;;4362159;32;20154;-71
2021/11/13 11:25:06;;;;;;;10.88;6.78;;;1.00;99.90;;;;;;4350209;32;20077;-71
2021/11/13 11:27:40;;;;;;;16.90;9.65;;;1.00;99.90;;;;;;4362118;32;20082;-71
2021/11/13 11:30:12;;;;;;;17.62;10.75;;;1.00;99.90;;;;;;4362072;32;20082;-70
2021/11/13 11:32:56;;;;;;;11.73;8.15;;;1.10;99.90;;;;;;4349187;32;20108;-71
2021/11/13 11:35:29;;;;;;;13.65;8.95;;;1.10;99.90;;;;;;4349387;32;20081;-70
2021/11/13 11:37:59;;;;;;;14.40;9.60;;;1.00;99.90;;;;;;4349002;32;20170;-71
2021/11/13 11:40:32;;;;;;;14.87;9.27;;;1.00;99.90;;;;;;4349367;32;20097;-72
2021/11/13 11:43:00;;;;;;;13.68;8.48;;;1.10;99.90;;;;;;4361570;32;20073;-70
2021/11/13 11:45:38;;;;;;;13.13;9.48;;;1.10;99.90;;;;;;4349816;32;20198;-70
2021/11/13 11:48:09;;;;;;;9.07;6.12;;;1.10;99.90;;;;;;4361788;32;20210;-71
2021/11/13 11:50:35;;;;;;;9.10;5.55;;;1.10;99.90;;;;;;4362162;32;20083;-70
2021/11/13 11:53:07;;;;;;;11.30;7.72;;;1.10;99.90;;;;;;4361314;32;20158;-71
2021/11/13 11:55:35;;;;;;;14.65;9.88;;;1.10;99.90;;;;;;4348796;32;20542;-71
2021/11/13 11:58:04;;;;;;;14.18;8.40;;;1.20;99.90;;;;;;4349236;32;20145;-72
2021/11/13 12:00:32;;;;;;;13.62;8.60;;;1.10;99.90;;;;;;4362032;32;20082;-70
2021/11/13 12:03:00;;;;;;;13.77;9.05;;;1.20;99.90;;;;;;4361537;32;20456;-71
2021/11/13 12:05:35;;;;;;;13.85;9.88;;;1.20;99.90;;;;;;4364527;32;20113;-72
2021/11/13 12:08:20;;;;;;;13.35;8.98;;;1.20;99.90;;;;;;4358382;32;20110;-69
2021/11/13 12:10:46;;;;;;;14.70;9.07;;;1.20;99.90;;;;;;4360779;32;20497;-69
2021/11/13 12:13:18;;;;;;;13.45;9.48;;;1.20;99.90;;;;;;4370978;32;20139;-71
2021/11/13 12:15:49;;;;;;;12.68;7.40;;;1.20;99.90;;;;;;4374859;32;20077;-70
2021/11/13 12:18:27;;;;;;;14.52;10.55;;;1.20;99.90;;;;;;4360326;32;20090;-69
2021/11/13 12:21:05;;;;;;;10.73;7.22;;;1.20;99.90;;;;;;4358505;32;20156;-71
2021/11/13 12:23:43;;;;;;;13.62;9.98;;;1.20;99.90;;;;;;4367612;32;20143;-68
2021/11/13 12:26:13;;;;;;;9.85;7.45;;;1.20;99.90;;;;;;4363750;32;20099;-69
2021/11/13 12:28:42;;;;;;;15.48;9.05;;;1.20;99.90;;;;;;4358326;32;20074;-69
2021/11/13 12:31:40;;;;;;;11.82;7.78;;;1.20;99.90;;;;;;4371523;32;20149;-68
2021/11/13 12:34:14;;;;;;;12.43;9.02;;;1.30;99.90;;;;;;4360100;32;20539;-69
2021/11/13 12:37:07;;;;;;;11.88;7.32;;;1.30;99.90;;;;;;4366645;32;20086;-69
2021/11/13 12:39:47;;;;;;;13.27;9.48;;;1.30;99.90;;;;;;4364044;32;20131;-69
2021/11/13 12:42:25;;;;;;;12.07;7.65;;;1.30;99.90;;;;;;4371015;32;20576;-69
2021/11/13 12:44:58;;;;;;;13.68;8.10;;;1.30;99.90;;;;;;4351718;32;20070;-64
2021/11/13 12:47:29;;;;;;;8.50;6.18;;;1.30;99.90;;;;;;4368843;32;20062;-69
2021/11/13 12:50:00;;;;;;;10.15;6.90;;;1.40;99.90;;;;;;4361770;32;20161;-67
2021/11/13 12:52:50;;;;;;;11.07;6.68;;;1.30;99.90;;;;;;4374124;32;20101;-70
2021/11/13 12:55:25;;;;;;;13.13;9.57;;;1.40;99.90;;;;;;4345551;32;20085;-67
2021/11/13 12:58:15;;;;;;;12.20;8.48;;;1.40;99.90;;;;;;4353785;32;20058;-68
2021/11/13 13:00:50;;;;;;;13.80;7.80;;;1.40;99.90;;;;;;4371800;32;20471;-66